createdAt,value
2019-03-03T00:01:08.975Z,99821.55
2019-03-03T00:03:37.286Z,99828.56
2019-03-03T00:06:05.533Z,99825.16
2019-03-03T00:08:33.817Z,99824.81
2019-03-03T00:11:02.193Z,99823.14
2019-03-03T00:13:30.652Z,99819.60
2019-03-03T00:15:58.855Z,99823.44
2019-03-03T00:18:27.140Z,99812.38
2019-03-03T00:20:55.431Z,99819.22
2019-03-03T00:23:24.034Z,99824.95
2019-03-03T00:25:53.373Z,99830.20
2019-03-03T00:28:21.583Z,99831.06
2019-03-03T00:30:49.850Z,99829.43
2019-03-03T00:33:18.117Z,99841.70
2019-03-03T00:35:46.370Z,99829.26
2019-03-03T00:38:42.528Z,99840.20
2019-03-03T00:41:32.713Z,99832.58
2019-03-03T00:44:19.959Z,99836.31
2019-03-03T00:47:07.552Z,99831.41
2019-03-03T00:49:53.540Z,99827.95
2019-03-03T00:52:32.741Z,99827.88
2019-03-03T00:55:19.877Z,99836.58
2019-03-03T00:58:07.025Z,99826.80
2019-03-03T01:00:50.916Z,99834.52
2019-03-03T01:03:25.455Z,99836.19
2019-03-03T01:06:03.182Z,99814.01
2019-03-03T01:08:57.445Z,99820.86
2019-03-03T01:11:41.620Z,99813.70
2019-03-03T01:14:31.551Z,99812.23
2019-03-03T01:17:22.136Z,99814.27
2019-03-03T01:20:08.518Z,99810.00
2019-03-03T01:22:45.768Z,99798.67
2019-03-03T01:25:14.024Z,99796.13
2019-03-03T01:27:42.381Z,99789.84
2019-03-03T01:30:11.657Z,99797.61
2019-03-03T01:32:39.941Z,99791.09
2019-03-03T01:35:09.006Z,99791.61
2019-03-03T01:37:37.267Z,99783.60
2019-03-03T01:40:06.210Z,99785.92
2019-03-03T01:42:34.643Z,99775.46
2019-03-03T01:45:02.860Z,99778.26
2019-03-03T01:47:31.138Z,99770.42
2019-03-03T01:49:59.456Z,99775.76
2019-03-03T01:52:27.688Z,99764.34
2019-03-03T01:55:03.169Z,99766.20
2019-03-03T01:57:31.344Z,99767.63
2019-03-03T01:59:59.510Z,99759.25
2019-03-03T02:02:28.142Z,99753.74
2019-03-03T02:04:56.354Z,99761.11
2019-03-03T02:07:24.578Z,99744.70
2019-03-03T02:09:52.794Z,99745.91
2019-03-03T02:12:20.962Z,99730.57
2019-03-03T02:14:49.157Z,99730.91
2019-03-03T02:17:17.452Z,99729.14
2019-03-03T02:19:45.819Z,99718.73
2019-03-03T02:22:14.565Z,99718.50
2019-03-03T02:24:42.786Z,99703.37
2019-03-03T02:27:11.043Z,99705.16
2019-03-03T02:29:39.291Z,99699.18
2019-03-03T02:32:07.590Z,99688.29
2019-03-03T02:34:35.834Z,99687.25
2019-03-03T02:37:04.625Z,99690.30
2019-03-03T02:39:32.877Z,99684.92
2019-03-03T02:42:01.757Z,99675.02
2019-03-03T02:44:30.154Z,99671.72
2019-03-03T02:46:58.382Z,99669.98
2019-03-03T02:49:26.798Z,99681.55
2019-03-03T02:51:55.035Z,99668.63
2019-03-03T02:54:23.210Z,99669.78
2019-03-03T02:56:51.716Z,99660.81
2019-03-03T02:59:19.945Z,99653.61
2019-03-03T03:01:52.685Z,99638.94
2019-03-03T03:04:20.952Z,99641.22
2019-03-03T03:07:08.734Z,99649.66
2019-03-03T03:09:50.280Z,99634.33
2019-03-03T03:12:30.555Z,99647.75
2019-03-03T03:15:17.806Z,99660.56
2019-03-03T03:17:57.167Z,99631.03
2019-03-03T03:20:43.246Z,99640.49
2019-03-03T03:23:33.602Z,99622.84
2019-03-03T03:26:17.456Z,99627.43
2019-03-03T03:29:04.784Z,99624.19
2019-03-03T03:31:51.854Z,99626.28
2019-03-03T03:34:34.929Z,99600.42
2019-03-03T03:37:17.700Z,99606.16
2019-03-03T03:40:04.814Z,99627.00
2019-03-03T03:42:51.934Z,99618.79
2019-03-03T03:45:37.863Z,99613.70
2019-03-03T03:48:23.543Z,99602.56
2019-03-03T03:51:10.921Z,99608.58
2019-03-03T03:54:05.852Z,99593.32
2019-03-03T03:56:53.107Z,99589.79
2019-03-03T03:59:46.417Z,99597.02
2019-03-03T04:02:33.570Z,99581.37
2019-03-03T04:05:20.836Z,99578.32
2019-03-03T04:08:08.201Z,99574.70
2019-03-03T04:10:42.433Z,99561.00
2019-03-03T04:13:29.559Z,99568.95
2019-03-03T04:16:15.299Z,99561.80
2019-03-03T04:19:05.128Z,99575.08
2019-03-03T04:21:43.196Z,99567.20
2019-03-03T04:24:39.746Z,99564.63
2019-03-03T04:27:26.912Z,99569.64
2019-03-03T04:30:17.013Z,99556.61
2019-03-03T04:33:04.111Z,99556.92
2019-03-03T04:35:44.227Z,99551.70
2019-03-03T04:38:25.916Z,99545.38
2019-03-03T04:41:25.021Z,99538.22
2019-03-03T04:44:12.132Z,99544.75
2019-03-03T04:47:11.473Z,99534.88
2019-03-03T04:49:54.455Z,99539.18
2019-03-03T04:52:41.699Z,99525.06
2019-03-03T04:55:28.127Z,99527.22
2019-03-03T04:58:13.978Z,99531.83
2019-03-03T05:01:13.394Z,99543.89
2019-03-03T05:04:00.545Z,99547.33
2019-03-03T05:06:46.402Z,99535.34
2019-03-03T05:09:27.557Z,99540.48
2019-03-03T05:12:39.455Z,99539.44
2019-03-03T05:15:32.992Z,99538.22
2019-03-03T05:18:20.106Z,99545.52
2019-03-03T05:20:50.164Z,99535.17
2019-03-03T05:23:18.394Z,99533.17
2019-03-03T05:25:46.606Z,99537.16
2019-03-03T05:28:14.848Z,99532.55
2019-03-03T05:30:43.158Z,99526.64
2019-03-03T05:33:11.402Z,99536.75
2019-03-03T05:35:39.693Z,99524.88
2019-03-03T05:38:07.912Z,99543.33
2019-03-03T05:40:36.161Z,99537.16
2019-03-03T05:43:04.487Z,99532.81
2019-03-03T05:45:32.809Z,99535.54
2019-03-03T05:48:01.230Z,99530.09
2019-03-03T05:50:29.513Z,99528.75
2019-03-03T05:52:57.923Z,99518.84
2019-03-03T05:55:26.093Z,99512.96
2019-03-03T05:57:54.305Z,99501.83
2019-03-03T06:00:22.773Z,99505.92
2019-03-03T06:02:51.009Z,99498.68
2019-03-03T06:05:19.379Z,99487.34
2019-03-03T06:07:47.936Z,99490.99
2019-03-03T06:10:16.173Z,99486.11
2019-03-03T06:12:44.406Z,99495.01
2019-03-03T06:15:13.569Z,99495.20
2019-03-03T06:17:41.936Z,99489.20
2019-03-03T06:20:11.111Z,99468.22
2019-03-03T06:22:39.514Z,99475.87
2019-03-03T06:25:07.936Z,99484.80
2019-03-03T06:27:36.224Z,99483.73
2019-03-03T06:30:05.554Z,99474.66
2019-03-03T06:32:33.880Z,99481.10
2019-03-03T06:35:02.164Z,99477.33
2019-03-03T06:37:30.402Z,99471.44
2019-03-03T06:39:58.770Z,99474.11
2019-03-03T06:42:27.121Z,99473.56
2019-03-03T06:44:55.480Z,99475.82
2019-03-03T06:47:23.714Z,99477.98
2019-03-03T06:49:51.891Z,99459.91
2019-03-03T06:52:20.278Z,99472.77
2019-03-03T06:54:48.501Z,99464.30
2019-03-03T06:57:16.767Z,99469.05
2019-03-03T06:59:44.987Z,99469.31
2019-03-03T07:02:13.330Z,99463.72
2019-03-03T07:04:41.605Z,99463.53
2019-03-03T07:07:09.835Z,99472.44
2019-03-03T07:09:38.181Z,99469.52
2019-03-03T07:12:06.395Z,99471.55
2019-03-03T07:14:34.818Z,99473.44
2019-03-03T07:17:03.071Z,99470.86
2019-03-03T07:19:31.267Z,99472.44
2019-03-03T07:21:59.851Z,99477.51
2019-03-03T07:24:28.148Z,99476.65
2019-03-03T07:26:56.414Z,99473.08
2019-03-03T07:29:24.723Z,99479.77
2019-03-03T07:31:53.000Z,99474.26
2019-03-03T07:34:21.372Z,99488.70
2019-03-03T07:36:49.615Z,99488.47
2019-03-03T07:39:36.890Z,99493.45
2019-03-03T07:42:05.098Z,99488.47
2019-03-03T07:44:33.364Z,99490.98
2019-03-03T07:47:01.511Z,99501.15
2019-03-03T07:49:29.841Z,99493.55
2019-03-03T07:51:58.265Z,99501.41
2019-03-03T07:54:26.536Z,99493.45
2019-03-03T07:56:54.958Z,99518.73
2019-03-03T07:59:23.284Z,99494.88
2019-03-03T08:01:51.531Z,99516.39
2019-03-03T08:04:19.866Z,99509.31
2019-03-03T08:06:48.058Z,99510.50
2019-03-03T08:09:16.590Z,99506.91
2019-03-03T08:11:45.497Z,99508.52
2019-03-03T08:14:13.700Z,99513.95
2019-03-03T08:16:42.021Z,99506.94
2019-03-03T08:19:10.326Z,99507.45
2019-03-03T08:21:38.654Z,99513.36
2019-03-03T08:24:07.030Z,99515.64
2019-03-03T08:26:35.975Z,99518.64
2019-03-03T08:29:04.299Z,99513.73
2019-03-03T08:31:32.650Z,99508.16
2019-03-03T08:34:00.917Z,99516.36
2019-03-03T08:36:29.160Z,99517.30
2019-03-03T08:38:57.404Z,99509.53
2019-03-03T08:41:25.689Z,99509.08
2019-03-03T08:44:00.875Z,99517.36
2019-03-03T08:46:48.213Z,99518.70
2019-03-03T08:49:27.861Z,99522.58
2019-03-03T08:52:15.085Z,99521.63
2019-03-03T08:55:08.649Z,99523.77
2019-03-03T08:57:56.080Z,99519.29
2019-03-03T09:00:34.285Z,99523.57
2019-03-03T09:03:24.740Z,99529.24
2019-03-03T09:06:00.770Z,99531.44
2019-03-03T09:08:41.287Z,99520.63
2019-03-03T09:11:17.186Z,99524.58
2019-03-03T09:14:10.414Z,99536.08
2019-03-03T09:16:53.883Z,99506.34
2019-03-03T09:19:39.725Z,99527.64
2019-03-03T09:22:16.372Z,99535.01
2019-03-03T09:25:03.666Z,99535.36
2019-03-03T09:27:47.854Z,99528.20
2019-03-03T09:30:29.130Z,99518.94
2019-03-03T09:33:31.622Z,99532.21
2019-03-03T09:36:17.222Z,99524.58
2019-03-03T09:39:05.571Z,99526.81
2019-03-03T09:41:44.388Z,99520.81
2019-03-03T09:44:30.769Z,99528.98
2019-03-03T09:47:18.049Z,99523.28
2019-03-03T09:50:08.791Z,99530.29
2019-03-03T09:52:56.049Z,99528.18
2019-03-03T09:55:37.629Z,99531.53
2019-03-03T09:58:37.073Z,99528.20
2019-03-03T10:01:20.360Z,99526.64
2019-03-03T10:04:08.085Z,99528.48
2019-03-03T10:07:01.567Z,99526.66
2019-03-03T10:09:49.258Z,99530.31
2019-03-03T10:12:40.016Z,99524.64
2019-03-03T10:15:19.536Z,99516.72
2019-03-03T10:18:07.108Z,99518.85
2019-03-03T10:20:53.995Z,99512.61
2019-03-03T10:23:33.204Z,99518.28
2019-03-03T10:26:20.011Z,99510.58
2019-03-03T10:29:23.208Z,99508.17
2019-03-03T10:32:16.570Z,99510.14
2019-03-03T10:35:09.614Z,99511.61
2019-03-03T10:37:57.118Z,99501.41
2019-03-03T10:40:44.820Z,99508.19
2019-03-03T10:43:37.404Z,99508.84
2019-03-03T10:46:29.378Z,99498.23
2019-03-03T10:49:23.495Z,99492.19
2019-03-03T10:51:58.687Z,99487.69
2019-03-03T10:54:45.437Z,99491.06
2019-03-03T10:57:34.531Z,99491.50
2019-03-03T11:00:20.708Z,99487.59
2019-03-03T11:03:08.501Z,99491.52
2019-03-03T11:06:08.701Z,99492.30
2019-03-03T11:08:58.919Z,99495.70
2019-03-03T11:11:45.149Z,99493.03
2019-03-03T11:14:25.655Z,99486.72
2019-03-03T11:17:15.105Z,99485.39
2019-03-03T11:20:03.011Z,99486.70
2019-03-03T11:22:48.762Z,99481.03
2019-03-03T11:25:36.209Z,99488.98
2019-03-03T11:28:35.615Z,99478.03
2019-03-03T11:31:23.226Z,99486.49
2019-03-03T11:34:13.073Z,99472.19
2019-03-03T11:37:00.482Z,99469.61
2019-03-03T11:39:47.985Z,99469.19
2019-03-03T11:42:28.121Z,99474.10
2019-03-03T11:45:12.042Z,99465.06
2019-03-03T11:48:04.207Z,99466.64
2019-03-03T11:50:54.714Z,99460.84
2019-03-03T11:53:50.035Z,99459.64
2019-03-03T11:56:43.717Z,99450.83
2019-03-03T11:59:29.344Z,99455.95
2019-03-03T12:02:16.818Z,99446.52
2019-03-03T12:05:11.534Z,99444.75
2019-03-03T12:08:04.584Z,99439.47
2019-03-03T12:10:38.901Z,99435.41
2019-03-03T12:13:27.978Z,99441.53
2019-03-03T12:16:19.707Z,99435.78
2019-03-03T12:19:05.552Z,99440.84
2019-03-03T12:21:51.788Z,99193.66
2019-03-03T12:24:44.893Z,99433.84
2019-03-03T12:27:28.127Z,99437.10
2019-03-03T12:30:16.410Z,99420.00
2019-03-03T12:33:02.240Z,99431.63
2019-03-03T12:35:49.537Z,99417.09
2019-03-03T12:38:35.509Z,99429.78
2019-03-03T12:41:17.079Z,99417.14
2019-03-03T12:44:05.605Z,99419.45
2019-03-03T12:46:57.719Z,99424.98
2019-03-03T12:49:51.272Z,99417.39
2019-03-03T12:52:37.098Z,99421.58
2019-03-03T12:55:27.522Z,99408.48
2019-03-03T12:58:06.027Z,99413.13
2019-03-03T13:00:40.625Z,99409.70
2019-03-03T13:03:28.064Z,99416.98
2019-03-03T13:06:24.047Z,99416.03
2019-03-03T13:09:00.008Z,99415.33
2019-03-03T13:11:46.462Z,99412.95
2019-03-03T13:14:25.301Z,99409.51
2019-03-03T13:17:19.579Z,99406.05
2019-03-03T13:20:09.297Z,99396.74
2019-03-03T13:22:55.748Z,99389.23
2019-03-03T13:25:36.320Z,99386.83
2019-03-03T13:28:22.977Z,99380.30
2019-03-03T13:31:10.713Z,99376.76
2019-03-03T13:34:16.587Z,99370.48
2019-03-03T13:36:53.077Z,99375.46
2019-03-03T13:39:40.689Z,99372.31
2019-03-03T13:42:28.428Z,99358.00
2019-03-03T13:44:57.559Z,99352.59
2019-03-03T13:47:26.518Z,99350.56
2019-03-03T13:49:55.267Z,99346.18
2019-03-03T13:52:24.329Z,99344.43
2019-03-03T13:54:53.643Z,99351.30
2019-03-03T13:57:23.405Z,99344.34
2019-03-03T13:59:52.379Z,99352.03
2019-03-03T14:02:21.596Z,99340.45
2019-03-03T14:04:50.519Z,99351.66
2019-03-03T14:07:19.276Z,99340.09
2019-03-03T14:09:49.038Z,99342.28
2019-03-03T14:12:18.389Z,99345.09
2019-03-03T14:14:46.943Z,99342.40
2019-03-03T14:17:15.459Z,99331.91
2019-03-03T14:19:44.744Z,99335.03
2019-03-03T14:22:14.624Z,99322.17
2019-03-03T14:24:46.516Z,99326.11
2019-03-03T14:27:15.631Z,99323.96
2019-03-03T14:29:46.314Z,99318.53
2019-03-03T14:32:15.453Z,99310.87
2019-03-03T14:34:44.051Z,99318.97
2019-03-03T14:37:12.622Z,99320.24
2019-03-03T14:39:41.310Z,99323.96
2019-03-03T14:42:11.120Z,99318.16
2019-03-03T14:44:40.460Z,99318.38
2019-03-03T14:47:09.757Z,99315.39
2019-03-03T14:49:38.695Z,99315.87
2019-03-03T14:52:08.291Z,99314.58
2019-03-03T14:54:37.452Z,99310.74
2019-03-03T14:57:06.072Z,99304.18
2019-03-03T14:59:35.457Z,99296.21
2019-03-03T15:02:05.203Z,99299.19
2019-03-03T15:04:34.291Z,99300.28
2019-03-03T15:07:03.370Z,99285.54
2019-03-03T15:09:32.839Z,99295.09
2019-03-03T15:12:01.931Z,99288.53
2019-03-03T15:14:31.195Z,99286.47
2019-03-03T15:17:00.286Z,99301.08
2019-03-03T15:19:29.874Z,99287.44
2019-03-03T15:21:59.037Z,99281.89
2019-03-03T15:24:28.237Z,99283.05
2019-03-03T15:26:57.416Z,99270.27
2019-03-03T15:29:26.623Z,99275.98
2019-03-03T15:31:55.607Z,99276.17
2019-03-03T15:34:25.077Z,99279.65
2019-03-03T15:36:54.356Z,99267.84
2019-03-03T15:39:23.434Z,99273.30
2019-03-03T15:41:53.202Z,99255.72
2019-03-03T15:44:22.165Z,99255.38
2019-03-03T15:46:51.544Z,99259.69
2019-03-03T15:49:21.196Z,99263.38
2019-03-03T15:51:51.222Z,99251.36
2019-03-03T15:54:19.602Z,99245.75
2019-03-03T15:56:49.559Z,99237.66
2019-03-03T15:59:19.511Z,99236.65
2019-03-03T16:01:48.926Z,99232.84
2019-03-03T16:04:17.818Z,99229.56
2019-03-03T16:06:47.457Z,99235.88
2019-03-03T16:09:17.323Z,99231.45
2019-03-03T16:11:46.453Z,99227.76
2019-03-03T16:14:18.413Z,99230.48
2019-03-03T16:16:48.323Z,99233.48
2019-03-03T16:19:18.508Z,99221.52
2019-03-03T16:21:49.485Z,99228.63
2019-03-03T16:24:21.029Z,99217.14
2019-03-03T16:26:49.485Z,99216.73
2019-03-03T16:29:19.335Z,99208.91
2019-03-03T16:31:48.406Z,99209.94
2019-03-03T16:34:18.071Z,99206.58
2019-03-03T16:36:47.327Z,99207.02
2019-03-03T16:39:17.091Z,99204.34
2019-03-03T16:41:48.023Z,99194.19
2019-03-03T16:44:17.542Z,99197.09
2019-03-03T16:46:47.723Z,99190.12
2019-03-03T16:49:17.322Z,99189.02
2019-03-03T16:51:47.491Z,99188.33
2019-03-03T16:54:17.774Z,99185.48
2019-03-03T16:56:47.157Z,99176.48
2019-03-03T16:59:16.470Z,99172.04
2019-03-03T17:01:51.733Z,99170.33
2019-03-03T17:04:21.131Z,99172.66
2019-03-03T17:06:51.867Z,99159.52
2019-03-03T17:09:21.908Z,99156.71
2019-03-03T17:11:50.991Z,99150.32
2019-03-03T17:14:23.392Z,99147.89
2019-03-03T17:16:54.552Z,99146.43
2019-03-03T17:19:23.741Z,99138.27
2019-03-03T17:21:53.353Z,99136.38
2019-03-03T17:24:23.074Z,99133.78
2019-03-03T17:26:52.500Z,99126.71
2019-03-03T17:29:22.571Z,99125.93
2019-03-03T17:31:52.173Z,99116.38
2019-03-03T17:34:21.489Z,99114.14
2019-03-03T17:36:50.937Z,99112.19
2019-03-03T17:39:20.741Z,99112.55
2019-03-03T17:41:50.687Z,99117.17
2019-03-03T17:44:20.481Z,99112.37
2019-03-03T17:46:52.907Z,99109.69
2019-03-03T17:49:23.071Z,99101.41
2019-03-03T17:51:52.910Z,99102.08
2019-03-03T17:54:27.449Z,99113.27
2019-03-03T17:56:56.608Z,99110.47
2019-03-03T17:59:25.925Z,99102.37
2019-03-03T18:01:55.322Z,99099.11
2019-03-03T18:04:25.083Z,99095.50
2019-03-03T18:06:55.231Z,99101.48
2019-03-03T18:09:25.244Z,99089.06
2019-03-03T18:11:54.606Z,99092.59
2019-03-03T18:14:24.818Z,99087.36
2019-03-03T18:16:55.047Z,99087.95
2019-03-03T18:19:24.375Z,99086.94
2019-03-03T18:21:54.514Z,99080.80
2019-03-03T18:24:23.530Z,99094.41
2019-03-03T18:26:53.002Z,99093.45
2019-03-03T18:29:31.850Z,99096.38
2019-03-03T18:32:02.702Z,99096.72
2019-03-03T18:34:33.528Z,99088.88
2019-03-03T18:37:02.838Z,99097.88
2019-03-03T18:39:32.438Z,99083.41
2019-03-03T18:42:01.616Z,99077.31
2019-03-03T18:44:31.118Z,99080.29
2019-03-03T18:47:00.585Z,99069.36
2019-03-03T18:49:30.185Z,99068.77
2019-03-03T18:51:59.484Z,99072.74
2019-03-03T18:54:29.714Z,99065.57
2019-03-03T18:56:59.967Z,99069.21
2019-03-03T18:59:30.020Z,99061.03
2019-03-03T19:01:59.390Z,99066.49
2019-03-03T19:04:28.347Z,99062.22
2019-03-03T19:06:57.711Z,99053.45
2019-03-03T19:09:30.387Z,99054.86
2019-03-03T19:12:00.353Z,99052.14
2019-03-03T19:14:30.699Z,99046.27
2019-03-03T19:16:58.709Z,99048.09
2019-03-03T19:19:28.616Z,99028.05
2019-03-03T19:21:58.137Z,99026.94
2019-03-03T19:24:28.107Z,99020.09
2019-03-03T19:26:57.765Z,99018.53
2019-03-03T19:29:27.705Z,99021.69
2019-03-03T19:32:06.174Z,99016.94
2019-03-03T19:34:36.220Z,99007.76
2019-03-03T19:37:08.256Z,99008.91
2019-03-03T19:39:38.255Z,99004.03
2019-03-03T19:42:07.865Z,99003.03
2019-03-03T19:44:37.009Z,99004.52
2019-03-03T19:47:06.820Z,99002.37
2019-03-03T19:49:36.821Z,98986.77
2019-03-03T19:52:06.621Z,98993.70
2019-03-03T19:54:36.008Z,98990.49
2019-03-03T19:57:06.124Z,98988.53
2019-03-03T19:59:35.879Z,98987.72
2019-03-03T20:02:05.227Z,98980.50
2019-03-03T20:04:34.898Z,98982.14
2019-03-03T20:07:04.796Z,98974.24
2019-03-03T20:09:34.422Z,98967.33
2019-03-03T20:12:04.609Z,98961.28
2019-03-03T20:14:34.478Z,98950.47
2019-03-03T20:17:04.782Z,98944.57
2019-03-03T20:19:35.705Z,98942.44
2019-03-03T20:22:05.675Z,98936.44
2019-03-03T20:24:35.286Z,98927.77
2019-03-03T20:27:05.054Z,98925.01
2019-03-03T20:29:33.714Z,98913.64
2019-03-03T20:32:03.401Z,98908.90
2019-03-03T20:34:32.754Z,98907.30
2019-03-03T20:37:02.389Z,98911.87
2019-03-03T20:39:31.849Z,98901.59
2019-03-03T20:42:01.175Z,98876.55
2019-03-03T20:44:31.090Z,98884.92
2019-03-03T20:47:00.812Z,98894.61
2019-03-03T20:49:30.136Z,98885.81
2019-03-03T20:52:00.240Z,98885.33
2019-03-03T20:54:30.292Z,98879.14
2019-03-03T20:57:00.287Z,98883.21
2019-03-03T20:59:32.011Z,98865.55
2019-03-03T21:07:11.140Z,98876.06
2019-03-03T21:09:40.444Z,98851.42
2019-03-03T21:12:09.703Z,98856.98
2019-03-03T21:14:39.699Z,98851.44
2019-03-03T21:17:08.864Z,98847.20
2019-03-03T21:19:38.184Z,98841.49
2019-03-03T21:22:07.267Z,98834.58
2019-03-03T21:24:35.905Z,98830.75
2019-03-03T21:27:04.798Z,98832.48
2019-03-03T21:29:33.549Z,98833.80
2019-03-03T21:32:01.977Z,98844.83
2019-03-03T21:34:30.567Z,98828.31
2019-03-03T21:36:59.365Z,98826.45
2019-03-03T21:39:28.754Z,98819.56
2019-03-03T21:41:57.517Z,98820.13
2019-03-03T21:44:25.998Z,98813.23
2019-03-03T21:46:55.353Z,98816.20
2019-03-03T21:49:24.033Z,98820.41
2019-03-03T21:51:52.282Z,98816.06
2019-03-03T21:54:20.707Z,98823.18
2019-03-03T21:56:49.400Z,98828.88
2019-03-03T21:59:18.451Z,98807.52
2019-03-03T22:01:46.849Z,98797.09
2019-03-03T22:04:15.349Z,98801.70
2019-03-03T22:06:44.565Z,98785.94
2019-03-03T22:09:13.622Z,98780.70
2019-03-03T22:11:42.155Z,98784.02
2019-03-03T22:14:11.228Z,98784.14
2019-03-03T22:16:40.386Z,98796.55
2019-03-03T22:19:08.922Z,98779.16
2019-03-03T22:21:37.421Z,98776.47
2019-03-03T22:24:06.144Z,98775.70
2019-03-03T22:26:34.668Z,98773.02
2019-03-03T22:29:03.002Z,98769.91
2019-03-03T22:31:32.096Z,98762.85
2019-03-03T22:34:00.963Z,98763.19
2019-03-03T22:36:29.550Z,98758.70
2019-03-03T22:38:58.007Z,98755.39
2019-03-03T22:41:26.657Z,98749.34
2019-03-03T22:43:55.033Z,98758.15
2019-03-03T22:46:23.694Z,98743.42
2019-03-03T22:48:52.376Z,98729.25
2019-03-03T22:54:13.347Z,98718.89
2019-03-03T22:56:41.603Z,98719.66
2019-03-03T22:59:09.914Z,98731.78
2019-03-03T23:01:41.537Z,98732.88
2019-03-03T23:04:32.557Z,98720.09
2019-03-03T23:07:31.080Z,98735.02
2019-03-03T23:10:21.056Z,98708.62
2019-03-03T23:13:04.411Z,98705.07
2019-03-03T23:15:45.921Z,98692.66
2019-03-03T23:19:13.003Z,98679.51
2019-03-03T23:21:59.201Z,98678.73
2019-03-03T23:24:54.596Z,98673.21
2019-03-03T23:27:22.995Z,98656.47
2019-03-03T23:29:51.376Z,98654.61
2019-03-03T23:32:19.646Z,98643.17
2019-03-03T23:34:47.946Z,98635.53
2019-03-03T23:37:16.305Z,98622.26
2019-03-03T23:39:44.614Z,98633.80
2019-03-03T23:42:12.774Z,98617.98
2019-03-03T23:44:41.277Z,98612.28
2019-03-03T23:47:09.600Z,98604.36
2019-03-03T23:49:38.071Z,98595.36
2019-03-03T23:52:06.246Z,98585.22
2019-03-03T23:54:34.370Z,98570.59
2019-03-03T23:57:03.132Z,98570.31
2019-03-03T23:59:31.382Z,98548.69
